Petersburgh, New York
Current Conditions -  °F | °C
As of 3:34 AM on Tuesday 27 Jan 2015 (Local Time) from KAQW Reporting Station
Light Snow Light Snow  
Wind Chill:   Ceiling: 2500
Heat Index: 16°   Visibility: 1.5mi
Dew Point:   Wind: 6mph
Humidity: 74%   Direction: 260°W
Pressure: 29.8"   Gusts: NA
Location:  42.7192°N, 73.3641°W
Report Text: KAQW 270834Z AUTO 26005KT 1 1/2SM -SN OVC025 M09/M13 A2980 RMK AO2 P0000 T10891128
Loading
Personal Weather Stations






























Interactive Weather Map New forecast layout! Learn more

10-Day Weather Forecast

Advertisements
Track Severe Weather on mobile